首页
METAR-TAF:

METAR-TAF

机场 :

秋田機場

秋田, 日本

纬度: 39-37N, 经度: 140-13E, 海拔: 93米

当前天气观测

该预报发布于9小时和34分钟前的12:00 UTC
风速8节,风向东转东南,在南转南东之间变化
温度 25°C
湿度 65%
气压 1004 hPa
能见度10公里或以上
少量云层高于6000英尺
散云

METAR: RJSK 151200Z 11008KT 080V150 9999 FEW060 SCT/// 25/18 Q1004

时间: 06:34 (21:34 UTC)

预报

该预报发布于4小时和29分钟前的17:05 UTC
预报有效从15日的 18点(UTC)到 17日的 00点(UTC)
风速6节,风向东转东南
能见度10公里或以上
少量云层高于3000英尺
成为
从 16日的 00点(UTC)到 16日的 02点(UTC)
风速12节,风向西
短暂存在
从 16日的 06点(UTC)到 16日的 12点(UTC)
能見度: 4000
少量云层高于1000英尺
少量云层高于2000英尺, 积雨云.
多云层高于3000英尺
雷暴, 小雨, 轻雾
短暂存在
从 16日的 12点(UTC)到 16日的 21点(UTC)
能見度: 4000
少量云层高于500英尺
多云层高于800英尺
小阵雨, 轻雾,

TAF: RJSK 151705Z 1518/1700 12006KT 9999 FEW030 BECMG 1600/1602 28012KT TEMPO 1606/1612 4000 -TSRA BR FEW010 FEW020CB BKN030 TEMPO 1612/1621 4000 -SHRA BR FEW005 BKN008

超过4000个机场的气象观测和天气预报(METAR&TAF报告)。

可查询的气象台以黄色和红色小点在地图上表示。

将鼠标移到小点上方,可查看气象台名称。

然后点击查看天气观测和预报。

如需切换地图:点击带黑十字的绿色按钮放大地图;点击带横线的绿色按钮缩小地图;或者点击绿色箭头查看邻近地区的地图。


METAR-TAF: